Hiattville, Kansas
Current Conditions -  °F | °C
As of 12:35 PM on Thursday 30 Oct 2014 (Local Time) from KPTS Reporting Station
Clear Clear  
Wind Chill: 64°   Ceiling: Unl
Heat Index: 64°   Visibility: 10mi
Dew Point: 44°   Wind: 13mph
Humidity: 47%   Direction: 300°WNW
Pressure: 30.04"   Gusts: 16mph
Location:  37.8381°N, 94.721°W
Report Text: KPTS 301735Z AUTO 30011G14KT 10SM CLR 18/06 A3004 RMK AO2 T01790064
Loading
Personal Weather Stations






























Interactive Weather Map
Tropical Storm Tracking
New forecast layout! Learn more

10-Day Weather Forecast

Advertisements
Track Severe Weather on mobile